sensor_id;sensor_type;location;lat;lon;timestamp;P1;durP1;ratioP1;P2;durP2;ratioP2
21675;SDS011;10999;51.332;9.458;2022-12-16T00:01:25;31.00;;;15.95;;
21675;SDS011;10999;51.332;9.458;2022-12-16T00:03:53;38.25;;;16.75;;
21675;SDS011;10999;51.332;9.458;2022-12-16T00:06:22;36.22;;;15.02;;
21675;SDS011;10999;51.332;9.458;2022-12-16T00:08:51;36.75;;;17.92;;
21675;SDS011;10999;51.332;9.458;2022-12-16T00:11:18;40.50;;;17.38;;
21675;SDS011;10999;51.332;9.458;2022-12-16T00:13:45;38.05;;;16.48;;
21675;SDS011;10999;51.332;9.458;2022-12-16T00:16:16;31.67;;;14.20;;
21675;SDS011;10999;51.332;9.458;2022-12-16T00:18:46;32.78;;;13.73;;
21675;SDS011;10999;51.332;9.458;2022-12-16T00:21:13;34.10;;;16.52;;
21675;SDS011;10999;51.332;9.458;2022-12-16T00:23:43;34.58;;;16.33;;
21675;SDS011;10999;51.332;9.458;2022-12-16T00:26:10;29.02;;;12.70;;
21675;SDS011;10999;51.332;9.458;2022-12-16T00:28:37;38.85;;;13.77;;
21675;SDS011;10999;51.332;9.458;2022-12-16T00:31:05;37.58;;;15.00;;
21675;SDS011;10999;51.332;9.458;2022-12-16T00:33:32;26.17;;;12.88;;
21675;SDS011;10999;51.332;9.458;2022-12-16T00:36:00;41.17;;;15.50;;
21675;SDS011;10999;51.332;9.458;2022-12-16T00:38:26;29.40;;;13.23;;
21675;SDS011;10999;51.332;9.458;2022-12-16T00:40:53;33.85;;;14.43;;
21675;SDS011;10999;51.332;9.458;2022-12-16T00:43:20;39.03;;;13.80;;
21675;SDS011;10999;51.332;9.458;2022-12-16T00:45:47;27.80;;;13.25;;
21675;SDS011;10999;51.332;9.458;2022-12-16T00:48:17;25.60;;;11.77;;
21675;SDS011;10999;51.332;9.458;2022-12-16T00:50:48;35.53;;;12.30;;
21675;SDS011;10999;51.332;9.458;2022-12-16T00:53:17;34.25;;;15.13;;
21675;SDS011;10999;51.332;9.458;2022-12-16T00:55:45;40.47;;;15.40;;
21675;SDS011;10999;51.332;9.458;2022-12-16T00:58:12;25.75;;;12.60;;
21675;SDS011;10999;51.332;9.458;2022-12-16T01:00:39;35.85;;;14.25;;
21675;SDS011;10999;51.332;9.458;2022-12-16T01:03:06;38.20;;;15.13;;
21675;SDS011;10999;51.332;9.458;2022-12-16T01:05:32;26.45;;;12.45;;
21675;SDS011;10999;51.332;9.458;2022-12-16T01:07:59;39.85;;;14.68;;
21675;SDS011;10999;51.332;9.458;2022-12-16T01:10:26;31.80;;;13.00;;
21675;SDS011;10999;51.332;9.458;2022-12-16T01:12:52;27.83;;;11.00;;
21675;SDS011;10999;51.332;9.458;2022-12-16T01:15:20;22.15;;;10.43;;
21675;SDS011;10999;51.332;9.458;2022-12-16T01:17:47;29.08;;;14.57;;
21675;SDS011;10999;51.332;9.458;2022-12-16T01:20:13;39.70;;;14.60;;
21675;SDS011;10999;51.332;9.458;2022-12-16T01:22:40;27.90;;;12.55;;
21675;SDS011;10999;51.332;9.458;2022-12-16T01:25:09;31.30;;;15.38;;
21675;SDS011;10999;51.332;9.458;2022-12-16T01:27:38;27.08;;;13.63;;
21675;SDS011;10999;51.332;9.458;2022-12-16T01:30:05;36.13;;;13.30;;
21675;SDS011;10999;51.332;9.458;2022-12-16T01:32:32;31.27;;;12.30;;
21675;SDS011;10999;51.332;9.458;2022-12-16T01:34:59;31.67;;;11.48;;
21675;SDS011;10999;51.332;9.458;2022-12-16T01:37:25;21.02;;;11.93;;
21675;SDS011;10999;51.332;9.458;2022-12-16T01:39:52;30.20;;;13.02;;
21675;SDS011;10999;51.332;9.458;2022-12-16T01:42:19;32.88;;;13.52;;
21675;SDS011;10999;51.332;9.458;2022-12-16T01:44:48;30.75;;;12.05;;
21675;SDS011;10999;51.332;9.458;2022-12-16T01:47:24;33.45;;;12.80;;
21675;SDS011;10999;51.332;9.458;2022-12-16T01:50:03;29.77;;;11.52;;
21675;SDS011;10999;51.332;9.458;2022-12-16T01:52:37;31.98;;;14.30;;
21675;SDS011;10999;51.332;9.458;2022-12-16T01:55:08;24.95;;;12.43;;
21675;SDS011;10999;51.332;9.458;2022-12-16T01:57:47;31.20;;;12.68;;
21675;SDS011;10999;51.332;9.458;2022-12-16T02:00:20;33.72;;;12.77;;
21675;SDS011;10999;51.332;9.458;2022-12-16T02:02:47;22.10;;;12.40;;
21675;SDS011;10999;51.332;9.458;2022-12-16T02:05:15;23.65;;;11.40;;
21675;SDS011;10999;51.332;9.458;2022-12-16T02:07:56;28.02;;;12.55;;
21675;SDS011;10999;51.332;9.458;2022-12-16T02:10:43;31.05;;;14.43;;
21675;SDS011;10999;51.332;9.458;2022-12-16T02:16:36;30.08;;;12.77;;
21675;SDS011;10999;51.332;9.458;2022-12-16T02:24:29;24.08;;;10.05;;
21675;SDS011;10999;51.332;9.458;2022-12-16T02:27:11;22.38;;;10.90;;
21675;SDS011;10999;51.332;9.458;2022-12-16T02:38:21;22.25;;;9.32;;
21675;SDS011;10999;51.332;9.458;2022-12-16T02:41:16;20.48;;;8.75;;
21675;SDS011;10999;51.332;9.458;2022-12-16T02:46:28;24.92;;;10.52;;
21675;SDS011;10999;51.332;9.458;2022-12-16T02:51:40;26.92;;;10.65;;
21675;SDS011;10999;51.332;9.458;2022-12-16T02:54:07;27.52;;;9.75;;
21675;SDS011;10999;51.332;9.458;2022-12-16T02:56:40;21.33;;;9.40;;
21675;SDS011;10999;51.332;9.458;2022-12-16T03:01:51;37.40;;;12.13;;
21675;SDS011;10999;51.332;9.458;2022-12-16T03:04:47;23.80;;;10.15;;
21675;SDS011;10999;51.332;9.458;2022-12-16T03:07:14;20.08;;;9.30;;
21675;SDS011;10999;51.332;9.458;2022-12-16T03:09:44;20.88;;;9.98;;
21675;SDS011;10999;51.332;9.458;2022-12-16T03:12:13;26.23;;;11.55;;
21675;SDS011;10999;51.332;9.458;2022-12-16T03:14:44;32.83;;;11.75;;
21675;SDS011;10999;51.332;9.458;2022-12-16T03:17:14;25.95;;;11.43;;
21675;SDS011;10999;51.332;9.458;2022-12-16T03:19:44;23.50;;;10.40;;
21675;SDS011;10999;51.332;9.458;2022-12-16T03:22:22;25.65;;;11.15;;
21675;SDS011;10999;51.332;9.458;2022-12-16T03:24:53;21.83;;;9.95;;
21675;SDS011;10999;51.332;9.458;2022-12-16T03:32:52;13.65;;;7.00;;
21675;SDS011;10999;51.332;9.458;2022-12-16T03:35:31;19.60;;;9.00;;
21675;SDS011;10999;51.332;9.458;2022-12-16T03:38:05;15.35;;;9.20;;
21675;SDS011;10999;51.332;9.458;2022-12-16T03:40:35;20.17;;;8.13;;
21675;SDS011;10999;51.332;9.458;2022-12-16T03:43:06;17.77;;;8.77;;
21675;SDS011;10999;51.332;9.458;2022-12-16T03:45:35;37.20;;;11.40;;
21675;SDS011;10999;51.332;9.458;2022-12-16T03:48:05;23.63;;;9.82;;
21675;SDS011;10999;51.332;9.458;2022-12-16T03:50:34;24.20;;;8.73;;
21675;SDS011;10999;51.332;9.458;2022-12-16T03:53:20;19.30;;;8.88;;
21675;SDS011;10999;51.332;9.458;2022-12-16T03:55:54;19.63;;;8.35;;
21675;SDS011;10999;51.332;9.458;2022-12-16T03:58:21;19.55;;;7.68;;
21675;SDS011;10999;51.332;9.458;2022-12-16T04:00:47;21.30;;;9.60;;
21675;SDS011;10999;51.332;9.458;2022-12-16T04:03:14;18.50;;;11.57;;
21675;SDS011;10999;51.332;9.458;2022-12-16T04:05:41;20.70;;;8.50;;
21675;SDS011;10999;51.332;9.458;2022-12-16T04:08:08;21.80;;;7.68;;
21675;SDS011;10999;51.332;9.458;2022-12-16T04:10:34;23.83;;;9.50;;
21675;SDS011;10999;51.332;9.458;2022-12-16T04:13:20;19.33;;;8.00;;
21675;SDS011;10999;51.332;9.458;2022-12-16T04:16:06;24.42;;;9.05;;
21675;SDS011;10999;51.332;9.458;2022-12-16T04:18:58;19.10;;;8.25;;
21675;SDS011;10999;51.332;9.458;2022-12-16T04:21:43;22.02;;;8.10;;
21675;SDS011;10999;51.332;9.458;2022-12-16T04:24:29;21.35;;;9.70;;
21675;SDS011;10999;51.332;9.458;2022-12-16T04:26:56;22.42;;;9.23;;
21675;SDS011;10999;51.332;9.458;2022-12-16T04:29:42;13.55;;;8.75;;
21675;SDS011;10999;51.332;9.458;2022-12-16T04:32:27;16.33;;;7.68;;
21675;SDS011;10999;51.332;9.458;2022-12-16T04:35:18;17.05;;;6.70;;
21675;SDS011;10999;51.332;9.458;2022-12-16T04:38:04;24.10;;;8.15;;
21675;SDS011;10999;51.332;9.458;2022-12-16T04:40:49;14.93;;;8.25;;
21675;SDS011;10999;51.332;9.458;2022-12-16T04:43:35;17.35;;;8.57;;
21675;SDS011;10999;51.332;9.458;2022-12-16T04:46:20;16.63;;;7.68;;
21675;SDS011;10999;51.332;9.458;2022-12-16T04:49:06;21.50;;;8.38;;
21675;SDS011;10999;51.332;9.458;2022-12-16T04:51:51;21.60;;;8.50;;
21675;SDS011;10999;51.332;9.458;2022-12-16T04:54:37;16.55;;;6.97;;
21675;SDS011;10999;51.332;9.458;2022-12-16T04:57:22;19.60;;;8.15;;
21675;SDS011;10999;51.332;9.458;2022-12-16T05:00:08;18.67;;;8.60;;
21675;SDS011;10999;51.332;9.458;2022-12-16T05:02:53;17.45;;;7.97;;
21675;SDS011;10999;51.332;9.458;2022-12-16T05:05:40;20.02;;;8.75;;
21675;SDS011;10999;51.332;9.458;2022-12-16T05:08:26;16.98;;;7.60;;
21675;SDS011;10999;51.332;9.458;2022-12-16T05:11:11;21.08;;;8.82;;
21675;SDS011;10999;51.332;9.458;2022-12-16T05:13:56;19.05;;;7.82;;
21675;SDS011;10999;51.332;9.458;2022-12-16T05:16:42;17.30;;;7.88;;
21675;SDS011;10999;51.332;9.458;2022-12-16T05:19:27;16.95;;;8.35;;
21675;SDS011;10999;51.332;9.458;2022-12-16T05:22:13;18.30;;;8.45;;
21675;SDS011;10999;51.332;9.458;2022-12-16T05:24:58;18.15;;;7.57;;
21675;SDS011;10999;51.332;9.458;2022-12-16T05:27:44;20.98;;;6.80;;
21675;SDS011;10999;51.332;9.458;2022-12-16T05:30:33;26.48;;;8.63;;
21675;SDS011;10999;51.332;9.458;2022-12-16T05:33:19;14.68;;;6.63;;
21675;SDS011;10999;51.332;9.458;2022-12-16T05:36:04;16.15;;;7.70;;
21675;SDS011;10999;51.332;9.458;2022-12-16T05:38:50;19.25;;;6.20;;
21675;SDS011;10999;51.332;9.458;2022-12-16T05:41:36;18.83;;;7.05;;
21675;SDS011;10999;51.332;9.458;2022-12-16T05:44:22;19.25;;;8.20;;
21675;SDS011;10999;51.332;9.458;2022-12-16T05:47:07;14.63;;;6.97;;
21675;SDS011;10999;51.332;9.458;2022-12-16T05:49:53;18.67;;;9.10;;
21675;SDS011;10999;51.332;9.458;2022-12-16T05:52:38;14.60;;;7.05;;
21675;SDS011;10999;51.332;9.458;2022-12-16T05:55:24;19.48;;;9.68;;
21675;SDS011;10999;51.332;9.458;2022-12-16T05:58:09;20.13;;;7.97;;
21675;SDS011;10999;51.332;9.458;2022-12-16T06:00:54;22.58;;;10.77;;
21675;SDS011;10999;51.332;9.458;2022-12-16T06:03:40;23.17;;;8.77;;
21675;SDS011;10999;51.332;9.458;2022-12-16T06:06:25;18.17;;;8.27;;
21675;SDS011;10999;51.332;9.458;2022-12-16T06:09:10;14.00;;;7.07;;
21675;SDS011;10999;51.332;9.458;2022-12-16T06:11:56;18.80;;;7.20;;
21675;SDS011;10999;51.332;9.458;2022-12-16T06:14:41;21.98;;;7.85;;
21675;SDS011;10999;51.332;9.458;2022-12-16T06:17:26;18.60;;;7.43;;
21675;SDS011;10999;51.332;9.458;2022-12-16T06:20:12;19.35;;;7.85;;
21675;SDS011;10999;51.332;9.458;2022-12-16T06:22:57;17.75;;;6.85;;
21675;SDS011;10999;51.332;9.458;2022-12-16T06:25:49;15.60;;;8.98;;
21675;SDS011;10999;51.332;9.458;2022-12-16T06:28:34;19.20;;;7.28;;
21675;SDS011;10999;51.332;9.458;2022-12-16T06:31:19;13.10;;;6.03;;
21675;SDS011;10999;51.332;9.458;2022-12-16T06:34:05;14.88;;;6.30;;
21675;SDS011;10999;51.332;9.458;2022-12-16T06:36:50;19.35;;;8.88;;
21675;SDS011;10999;51.332;9.458;2022-12-16T06:39:35;16.73;;;8.15;;
21675;SDS011;10999;51.332;9.458;2022-12-16T06:42:21;18.77;;;7.80;;
21675;SDS011;10999;51.332;9.458;2022-12-16T06:45:14;21.30;;;6.40;;
21675;SDS011;10999;51.332;9.458;2022-12-16T06:48:00;17.17;;;6.65;;
21675;SDS011;10999;51.332;9.458;2022-12-16T06:50:45;24.40;;;7.60;;
21675;SDS011;10999;51.332;9.458;2022-12-16T06:53:30;16.73;;;7.63;;
21675;SDS011;10999;51.332;9.458;2022-12-16T06:56:16;16.30;;;7.07;;
21675;SDS011;10999;51.332;9.458;2022-12-16T06:59:01;9.82;;;5.80;;
21675;SDS011;10999;51.332;9.458;2022-12-16T07:01:47;13.50;;;7.30;;
21675;SDS011;10999;51.332;9.458;2022-12-16T07:04:32;18.83;;;9.40;;
21675;SDS011;10999;51.332;9.458;2022-12-16T07:07:17;19.38;;;7.57;;
21675;SDS011;10999;51.332;9.458;2022-12-16T07:10:03;25.13;;;10.25;;
21675;SDS011;10999;51.332;9.458;2022-12-16T07:12:48;30.08;;;9.23;;
21675;SDS011;10999;51.332;9.458;2022-12-16T07:15:33;13.25;;;6.15;;
21675;SDS011;10999;51.332;9.458;2022-12-16T07:18:19;21.85;;;7.25;;
21675;SDS011;10999;51.332;9.458;2022-12-16T07:21:04;16.38;;;7.40;;
21675;SDS011;10999;51.332;9.458;2022-12-16T07:23:50;22.20;;;8.98;;
21675;SDS011;10999;51.332;9.458;2022-12-16T07:26:35;20.00;;;8.68;;
21675;SDS011;10999;51.332;9.458;2022-12-16T07:29:20;17.77;;;9.02;;
21675;SDS011;10999;51.332;9.458;2022-12-16T07:32:05;17.27;;;8.70;;
21675;SDS011;10999;51.332;9.458;2022-12-16T07:34:51;13.43;;;6.95;;
21675;SDS011;10999;51.332;9.458;2022-12-16T07:37:44;14.32;;;7.35;;
21675;SDS011;10999;51.332;9.458;2022-12-16T07:40:29;19.55;;;7.53;;
21675;SDS011;10999;51.332;9.458;2022-12-16T07:43:15;17.95;;;6.57;;
21675;SDS011;10999;51.332;9.458;2022-12-16T07:46:01;13.10;;;7.35;;
21675;SDS011;10999;51.332;9.458;2022-12-16T07:48:46;21.90;;;6.97;;
21675;SDS011;10999;51.332;9.458;2022-12-16T07:51:32;22.10;;;8.82;;
21675;SDS011;10999;51.332;9.458;2022-12-16T07:54:17;18.27;;;8.77;;
21675;SDS011;10999;51.332;9.458;2022-12-16T07:57:03;18.55;;;7.68;;
21675;SDS011;10999;51.332;9.458;2022-12-16T07:59:48;12.55;;;7.13;;
21675;SDS011;10999;51.332;9.458;2022-12-16T08:02:33;21.48;;;7.65;;
21675;SDS011;10999;51.332;9.458;2022-12-16T08:05:21;23.42;;;7.95;;
21675;SDS011;10999;51.332;9.458;2022-12-16T08:08:06;22.13;;;9.55;;
21675;SDS011;10999;51.332;9.458;2022-12-16T08:10:51;18.05;;;9.05;;
21675;SDS011;10999;51.332;9.458;2022-12-16T08:13:36;23.08;;;9.52;;
21675;SDS011;10999;51.332;9.458;2022-12-16T08:16:22;30.15;;;11.80;;
21675;SDS011;10999;51.332;9.458;2022-12-16T08:19:07;22.50;;;10.57;;
21675;SDS011;10999;51.332;9.458;2022-12-16T08:21:52;21.63;;;11.40;;
21675;SDS011;10999;51.332;9.458;2022-12-16T08:24:38;24.25;;;11.10;;
21675;SDS011;10999;51.332;9.458;2022-12-16T08:27:23;25.08;;;10.95;;
21675;SDS011;10999;51.332;9.458;2022-12-16T08:30:09;20.27;;;11.45;;
21675;SDS011;10999;51.332;9.458;2022-12-16T08:32:55;21.70;;;10.63;;
21675;SDS011;10999;51.332;9.458;2022-12-16T08:36:00;24.38;;;11.25;;
21675;SDS011;10999;51.332;9.458;2022-12-16T08:38:45;22.08;;;11.25;;
21675;SDS011;10999;51.332;9.458;2022-12-16T08:41:31;26.88;;;10.98;;
21675;SDS011;10999;51.332;9.458;2022-12-16T08:44:16;25.67;;;11.13;;
21675;SDS011;10999;51.332;9.458;2022-12-16T08:47:01;25.80;;;11.45;;
21675;SDS011;10999;51.332;9.458;2022-12-16T08:49:47;29.98;;;11.93;;
21675;SDS011;10999;51.332;9.458;2022-12-16T08:52:33;28.08;;;11.32;;
21675;SDS011;10999;51.332;9.458;2022-12-16T08:55:18;23.20;;;10.07;;
21675;SDS011;10999;51.332;9.458;2022-12-16T08:58:03;25.00;;;10.88;;
21675;SDS011;10999;51.332;9.458;2022-12-16T09:00:49;27.13;;;10.95;;
21675;SDS011;10999;51.332;9.458;2022-12-16T09:03:35;25.35;;;9.40;;
21675;SDS011;10999;51.332;9.458;2022-12-16T09:06:20;20.15;;;9.18;;
21675;SDS011;10999;51.332;9.458;2022-12-16T09:09:07;27.55;;;12.10;;
21675;SDS011;10999;51.332;9.458;2022-12-16T09:11:52;23.27;;;9.60;;
21675;SDS011;10999;51.332;9.458;2022-12-16T09:14:38;28.45;;;12.00;;
21675;SDS011;10999;51.332;9.458;2022-12-16T09:17:23;21.67;;;9.00;;
21675;SDS011;10999;51.332;9.458;2022-12-16T09:20:08;21.33;;;8.88;;
21675;SDS011;10999;51.332;9.458;2022-12-16T09:22:54;23.27;;;10.50;;
21675;SDS011;10999;51.332;9.458;2022-12-16T09:25:39;27.58;;;12.73;;
21675;SDS011;10999;51.332;9.458;2022-12-16T09:28:25;27.33;;;11.52;;
21675;SDS011;10999;51.332;9.458;2022-12-16T09:31:10;26.23;;;11.20;;
21675;SDS011;10999;51.332;9.458;2022-12-16T09:33:55;25.60;;;11.40;;
21675;SDS011;10999;51.332;9.458;2022-12-16T09:36:40;28.30;;;11.20;;
21675;SDS011;10999;51.332;9.458;2022-12-16T09:39:26;26.27;;;11.77;;
21675;SDS011;10999;51.332;9.458;2022-12-16T09:42:33;26.10;;;11.18;;
21675;SDS011;10999;51.332;9.458;2022-12-16T09:45:33;30.00;;;11.65;;
21675;SDS011;10999;51.332;9.458;2022-12-16T09:48:23;25.08;;;11.07;;
21675;SDS011;10999;51.332;9.458;2022-12-16T09:51:17;27.42;;;11.57;;
21675;SDS011;10999;51.332;9.458;2022-12-16T09:54:04;25.02;;;10.95;;
21675;SDS011;10999;51.332;9.458;2022-12-16T09:56:54;25.88;;;12.57;;
21675;SDS011;10999;51.332;9.458;2022-12-16T10:02:26;25.33;;;11.35;;
21675;SDS011;10999;51.332;9.458;2022-12-16T10:05:12;28.65;;;12.55;;
21675;SDS011;10999;51.332;9.458;2022-12-16T10:08:15;30.20;;;11.68;;
21675;SDS011;10999;51.332;9.458;2022-12-16T10:11:31;24.92;;;11.90;;
21675;SDS011;10999;51.332;9.458;2022-12-16T10:14:38;31.02;;;12.05;;
21675;SDS011;10999;51.332;9.458;2022-12-16T10:17:31;25.70;;;11.43;;
21675;SDS011;10999;51.332;9.458;2022-12-16T10:28:59;29.70;;;14.38;;
21675;SDS011;10999;51.332;9.458;2022-12-16T10:31:56;30.80;;;15.25;;
21675;SDS011;10999;51.332;9.458;2022-12-16T10:34:49;38.70;;;14.23;;
21675;SDS011;10999;51.332;9.458;2022-12-16T10:37:35;35.80;;;16.48;;
21675;SDS011;10999;51.332;9.458;2022-12-16T10:40:24;33.25;;;15.85;;
21675;SDS011;10999;51.332;9.458;2022-12-16T10:43:20;35.28;;;15.15;;
21675;SDS011;10999;51.332;9.458;2022-12-16T10:46:16;30.65;;;13.23;;
21675;SDS011;10999;51.332;9.458;2022-12-16T10:49:10;36.33;;;13.32;;
21675;SDS011;10999;51.332;9.458;2022-12-16T10:51:58;25.27;;;12.55;;
21675;SDS011;10999;51.332;9.458;2022-12-16T10:58:05;30.77;;;14.85;;
21675;SDS011;10999;51.332;9.458;2022-12-16T11:01:23;36.53;;;15.25;;
21675;SDS011;10999;51.332;9.458;2022-12-16T11:07:38;31.13;;;14.05;;
21675;SDS011;10999;51.332;9.458;2022-12-16T11:10:36;37.20;;;17.10;;
21675;SDS011;10999;51.332;9.458;2022-12-16T11:16:23;37.20;;;16.25;;
21675;SDS011;10999;51.332;9.458;2022-12-16T11:19:21;33.47;;;15.13;;
21675;SDS011;10999;51.332;9.458;2022-12-16T11:22:20;36.42;;;15.60;;
21675;SDS011;10999;51.332;9.458;2022-12-16T11:25:14;32.67;;;13.75;;
21675;SDS011;10999;51.332;9.458;2022-12-16T11:28:21;33.22;;;14.90;;
21675;SDS011;10999;51.332;9.458;2022-12-16T11:31:08;38.35;;;15.63;;
21675;SDS011;10999;51.332;9.458;2022-12-16T11:33:57;36.20;;;15.30;;
21675;SDS011;10999;51.332;9.458;2022-12-16T11:36:45;34.08;;;16.10;;
21675;SDS011;10999;51.332;9.458;2022-12-16T11:39:36;38.78;;;14.95;;
21675;SDS011;10999;51.332;9.458;2022-12-16T11:42:23;33.28;;;14.95;;
21675;SDS011;10999;51.332;9.458;2022-12-16T11:45:13;30.33;;;13.30;;
21675;SDS011;10999;51.332;9.458;2022-12-16T11:51:27;28.98;;;13.10;;
21675;SDS011;10999;51.332;9.458;2022-12-16T11:54:17;32.65;;;13.43;;
21675;SDS011;10999;51.332;9.458;2022-12-16T11:57:15;26.00;;;12.20;;
21675;SDS011;10999;51.332;9.458;2022-12-16T12:00:14;25.92;;;11.30;;
21675;SDS011;10999;51.332;9.458;2022-12-16T12:06:04;18.83;;;7.40;;
21675;SDS011;10999;51.332;9.458;2022-12-16T12:09:22;8.55;;;3.03;;
21675;SDS011;10999;51.332;9.458;2022-12-16T12:12:15;33.90;;;8.70;;
21675;SDS011;10999;51.332;9.458;2022-12-16T12:21:37;9.05;;;3.03;;
21675;SDS011;10999;51.332;9.458;2022-12-16T12:27:37;10.90;;;3.60;;
21675;SDS011;10999;51.332;9.458;2022-12-16T12:30:41;9.90;;;3.38;;
21675;SDS011;10999;51.332;9.458;2022-12-16T12:33:55;11.52;;;4.18;;
21675;SDS011;10999;51.332;9.458;2022-12-16T12:37:02;16.05;;;5.38;;
21675;SDS011;10999;51.332;9.458;2022-12-16T12:39:59;14.77;;;5.25;;
21675;SDS011;10999;51.332;9.458;2022-12-16T12:42:59;9.18;;;4.20;;
21675;SDS011;10999;51.332;9.458;2022-12-16T12:48:45;13.00;;;5.15;;
21675;SDS011;10999;51.332;9.458;2022-12-16T12:51:40;10.27;;;4.80;;
21675;SDS011;10999;51.332;9.458;2022-12-16T12:55:16;10.52;;;3.60;;
21675;SDS011;10999;51.332;9.458;2022-12-16T12:57:47;13.05;;;4.97;;
21675;SDS011;10999;51.332;9.458;2022-12-16T13:00:38;8.75;;;4.10;;
21675;SDS011;10999;51.332;9.458;2022-12-16T13:03:35;12.60;;;4.40;;
21675;SDS011;10999;51.332;9.458;2022-12-16T13:06:24;10.27;;;4.35;;
21675;SDS011;10999;51.332;9.458;2022-12-16T13:09:29;11.80;;;4.78;;
21675;SDS011;10999;51.332;9.458;2022-12-16T13:12:24;20.52;;;7.40;;
21675;SDS011;10999;51.332;9.458;2022-12-16T13:20:51;9.35;;;4.18;;
21675;SDS011;10999;51.332;9.458;2022-12-16T13:23:45;15.40;;;6.07;;
21675;SDS011;10999;51.332;9.458;2022-12-16T13:29:24;14.57;;;5.30;;
21675;SDS011;10999;51.332;9.458;2022-12-16T13:32:22;11.85;;;4.97;;
21675;SDS011;10999;51.332;9.458;2022-12-16T13:38:00;15.55;;;6.30;;
21675;SDS011;10999;51.332;9.458;2022-12-16T13:40:58;11.32;;;5.65;;
21675;SDS011;10999;51.332;9.458;2022-12-16T13:43:50;13.60;;;4.50;;
21675;SDS011;10999;51.332;9.458;2022-12-16T13:46:42;13.68;;;6.10;;
21675;SDS011;10999;51.332;9.458;2022-12-16T13:49:39;16.27;;;6.80;;
21675;SDS011;10999;51.332;9.458;2022-12-16T13:52:29;18.33;;;7.55;;
21675;SDS011;10999;51.332;9.458;2022-12-16T13:55:26;15.13;;;6.80;;
21675;SDS011;10999;51.332;9.458;2022-12-16T13:58:38;17.85;;;7.10;;
21675;SDS011;10999;51.332;9.458;2022-12-16T14:04:27;21.17;;;7.60;;
21675;SDS011;10999;51.332;9.458;2022-12-16T14:07:17;18.25;;;6.90;;
21675;SDS011;10999;51.332;9.458;2022-12-16T14:10:18;20.92;;;8.60;;
21675;SDS011;10999;51.332;9.458;2022-12-16T14:13:38;14.10;;;6.25;;
21675;SDS011;10999;51.332;9.458;2022-12-16T14:17:14;17.60;;;7.13;;
21675;SDS011;10999;51.332;9.458;2022-12-16T14:19:45;19.85;;;7.93;;
21675;SDS011;10999;51.332;9.458;2022-12-16T14:26:18;14.38;;;6.10;;
21675;SDS011;10999;51.332;9.458;2022-12-16T14:29:04;16.17;;;7.55;;
21675;SDS011;10999;51.332;9.458;2022-12-16T14:32:19;20.90;;;9.55;;
21675;SDS011;10999;51.332;9.458;2022-12-16T14:35:12;19.80;;;8.30;;
21675;SDS011;10999;51.332;9.458;2022-12-16T14:38:11;17.65;;;7.47;;
21675;SDS011;10999;51.332;9.458;2022-12-16T14:41:20;19.38;;;7.00;;
21675;SDS011;10999;51.332;9.458;2022-12-16T14:47:21;19.77;;;8.25;;
21675;SDS011;10999;51.332;9.458;2022-12-16T14:50:20;17.88;;;7.28;;
21675;SDS011;10999;51.332;9.458;2022-12-16T14:53:13;19.98;;;7.03;;
21675;SDS011;10999;51.332;9.458;2022-12-16T14:56:14;18.90;;;7.70;;
21675;SDS011;10999;51.332;9.458;2022-12-16T14:59:16;20.00;;;8.07;;
21675;SDS011;10999;51.332;9.458;2022-12-16T15:05:12;17.20;;;6.75;;
21675;SDS011;10999;51.332;9.458;2022-12-16T15:07:58;31.25;;;11.18;;
21675;SDS011;10999;51.332;9.458;2022-12-16T15:10:44;20.20;;;8.15;;
21675;SDS011;10999;51.332;9.458;2022-12-16T15:13:30;21.65;;;8.48;;
21675;SDS011;10999;51.332;9.458;2022-12-16T15:16:27;23.35;;;10.05;;
21675;SDS011;10999;51.332;9.458;2022-12-16T15:19:18;21.75;;;7.88;;
21675;SDS011;10999;51.332;9.458;2022-12-16T15:22:08;23.58;;;8.18;;
21675;SDS011;10999;51.332;9.458;2022-12-16T15:24:58;20.20;;;8.93;;
21675;SDS011;10999;51.332;9.458;2022-12-16T15:27:51;18.00;;;7.03;;
21675;SDS011;10999;51.332;9.458;2022-12-16T15:30:46;25.02;;;6.88;;
21675;SDS011;10999;51.332;9.458;2022-12-16T15:33:33;20.52;;;7.38;;
21675;SDS011;10999;51.332;9.458;2022-12-16T15:36:23;21.65;;;7.90;;
21675;SDS011;10999;51.332;9.458;2022-12-16T15:39:19;22.05;;;8.27;;
21675;SDS011;10999;51.332;9.458;2022-12-16T15:42:05;21.95;;;8.82;;
21675;SDS011;10999;51.332;9.458;2022-12-16T15:45:14;22.80;;;7.65;;
21675;SDS011;10999;51.332;9.458;2022-12-16T15:48:16;21.80;;;7.07;;
21675;SDS011;10999;51.332;9.458;2022-12-16T15:51:27;23.65;;;10.07;;
21675;SDS011;10999;51.332;9.458;2022-12-16T15:54:15;25.25;;;8.13;;
21675;SDS011;10999;51.332;9.458;2022-12-16T16:03:25;27.80;;;11.23;;
21675;SDS011;10999;51.332;9.458;2022-12-16T16:09:10;31.30;;;10.30;;
21675;SDS011;10999;51.332;9.458;2022-12-16T16:12:16;21.40;;;7.22;;
21675;SDS011;10999;51.332;9.458;2022-12-16T16:15:03;30.52;;;8.95;;
21675;SDS011;10999;51.332;9.458;2022-12-16T16:18:00;26.58;;;9.90;;
21675;SDS011;10999;51.332;9.458;2022-12-16T16:20:49;26.70;;;9.45;;
21675;SDS011;10999;51.332;9.458;2022-12-16T16:23:35;26.95;;;10.00;;
21675;SDS011;10999;51.332;9.458;2022-12-16T16:26:21;25.75;;;9.88;;
21675;SDS011;10999;51.332;9.458;2022-12-16T16:29:11;25.27;;;9.70;;
21675;SDS011;10999;51.332;9.458;2022-12-16T16:31:57;27.65;;;10.10;;
21675;SDS011;10999;51.332;9.458;2022-12-16T16:34:42;27.52;;;9.98;;
21675;SDS011;10999;51.332;9.458;2022-12-16T16:37:28;35.30;;;11.13;;
21675;SDS011;10999;51.332;9.458;2022-12-16T16:40:18;31.65;;;11.75;;
21675;SDS011;10999;51.332;9.458;2022-12-16T16:43:12;29.73;;;11.68;;
21675;SDS011;10999;51.332;9.458;2022-12-16T16:45:58;24.52;;;8.85;;
21675;SDS011;10999;51.332;9.458;2022-12-16T16:48:44;33.40;;;12.13;;
21675;SDS011;10999;51.332;9.458;2022-12-16T16:51:29;38.85;;;12.45;;
21675;SDS011;10999;51.332;9.458;2022-12-16T16:54:15;24.60;;;8.98;;
21675;SDS011;10999;51.332;9.458;2022-12-16T16:57:00;36.30;;;12.10;;
21675;SDS011;10999;51.332;9.458;2022-12-16T16:59:46;33.33;;;11.50;;
21675;SDS011;10999;51.332;9.458;2022-12-16T17:02:31;60.47;;;16.70;;
21675;SDS011;10999;51.332;9.458;2022-12-16T17:05:17;45.42;;;14.57;;
21675;SDS011;10999;51.332;9.458;2022-12-16T17:08:03;40.13;;;12.20;;
21675;SDS011;10999;51.332;9.458;2022-12-16T17:10:48;30.48;;;10.07;;
21675;SDS011;10999;51.332;9.458;2022-12-16T17:13:33;26.88;;;10.00;;
21675;SDS011;10999;51.332;9.458;2022-12-16T17:16:19;30.15;;;10.55;;
21675;SDS011;10999;51.332;9.458;2022-12-16T17:19:04;38.55;;;10.75;;
21675;SDS011;10999;51.332;9.458;2022-12-16T17:21:49;28.38;;;10.27;;
21675;SDS011;10999;51.332;9.458;2022-12-16T17:24:35;31.80;;;11.23;;
21675;SDS011;10999;51.332;9.458;2022-12-16T17:27:21;29.48;;;10.18;;
21675;SDS011;10999;51.332;9.458;2022-12-16T17:30:12;29.27;;;10.52;;
21675;SDS011;10999;51.332;9.458;2022-12-16T17:33:01;25.05;;;9.00;;
21675;SDS011;10999;51.332;9.458;2022-12-16T17:35:47;22.92;;;8.48;;
21675;SDS011;10999;51.332;9.458;2022-12-16T17:38:37;42.35;;;10.52;;
21675;SDS011;10999;51.332;9.458;2022-12-16T17:41:23;30.33;;;10.98;;
21675;SDS011;10999;51.332;9.458;2022-12-16T17:44:10;30.30;;;10.75;;
21675;SDS011;10999;51.332;9.458;2022-12-16T17:46:55;35.97;;;10.60;;
21675;SDS011;10999;51.332;9.458;2022-12-16T17:49:41;30.35;;;10.30;;
21675;SDS011;10999;51.332;9.458;2022-12-16T17:52:26;26.80;;;10.60;;
21675;SDS011;10999;51.332;9.458;2022-12-16T17:55:11;30.20;;;10.02;;
21675;SDS011;10999;51.332;9.458;2022-12-16T17:57:57;24.27;;;10.98;;